sensor_id;sensor_type;location;lat;lon;timestamp;P1;durP1;ratioP1;P2;durP2;ratioP2
30068;SDS011;16894;49.456;10.644;2023-08-17T00:01:39;88.80;;;82.82;;
30068;SDS011;16894;49.456;10.644;2023-08-17T00:04:05;90.38;;;84.00;;
30068;SDS011;16894;49.456;10.644;2023-08-17T00:06:31;90.25;;;84.47;;
30068;SDS011;16894;49.456;10.644;2023-08-17T00:08:56;87.50;;;81.70;;
30068;SDS011;16894;49.456;10.644;2023-08-17T00:11:22;88.78;;;83.07;;
30068;SDS011;16894;49.456;10.644;2023-08-17T00:13:48;86.95;;;81.35;;
30068;SDS011;16894;49.456;10.644;2023-08-17T00:16:14;86.95;;;81.63;;
30068;SDS011;16894;49.456;10.644;2023-08-17T00:18:39;84.13;;;78.72;;
30068;SDS011;16894;49.456;10.644;2023-08-17T00:21:05;90.28;;;84.07;;
30068;SDS011;16894;49.456;10.644;2023-08-17T00:23:31;88.72;;;83.22;;
30068;SDS011;16894;49.456;10.644;2023-08-17T00:25:56;90.97;;;85.13;;
30068;SDS011;16894;49.456;10.644;2023-08-17T00:28:22;89.90;;;84.33;;
30068;SDS011;16894;49.456;10.644;2023-08-17T00:30:48;92.60;;;86.75;;
30068;SDS011;16894;49.456;10.644;2023-08-17T00:33:13;87.88;;;82.35;;
30068;SDS011;16894;49.456;10.644;2023-08-17T00:35:39;88.38;;;82.75;;
30068;SDS011;16894;49.456;10.644;2023-08-17T00:38:05;93.78;;;87.90;;
30068;SDS011;16894;49.456;10.644;2023-08-17T00:40:30;96.00;;;89.72;;
30068;SDS011;16894;49.456;10.644;2023-08-17T00:42:56;94.07;;;88.05;;
30068;SDS011;16894;49.456;10.644;2023-08-17T00:45:22;90.38;;;84.78;;
30068;SDS011;16894;49.456;10.644;2023-08-17T00:47:49;90.93;;;85.35;;
30068;SDS011;16894;49.456;10.644;2023-08-17T00:50:15;94.07;;;88.07;;
30068;SDS011;16894;49.456;10.644;2023-08-17T00:55:07;81.95;;;76.70;;
30068;SDS011;16894;49.456;10.644;2023-08-17T00:57:34;85.05;;;79.55;;
30068;SDS011;16894;49.456;10.644;2023-08-17T01:00:01;86.40;;;80.85;;
30068;SDS011;16894;49.456;10.644;2023-08-17T01:02:29;93.53;;;87.60;;
30068;SDS011;16894;49.456;10.644;2023-08-17T01:04:55;93.75;;;87.78;;
30068;SDS011;16894;49.456;10.644;2023-08-17T01:07:21;93.82;;;87.72;;
30068;SDS011;16894;49.456;10.644;2023-08-17T01:09:46;90.40;;;84.78;;
30068;SDS011;16894;49.456;10.644;2023-08-17T01:15:08;93.78;;;87.97;;
30068;SDS011;16894;49.456;10.644;2023-08-17T01:20:42;103.32;;;96.78;;
30068;SDS011;16894;49.456;10.644;2023-08-17T01:23:09;106.53;;;99.85;;
30068;SDS011;16894;49.456;10.644;2023-08-17T01:25:35;105.35;;;98.93;;
30068;SDS011;16894;49.456;10.644;2023-08-17T01:28:03;109.25;;;102.40;;
30068;SDS011;16894;49.456;10.644;2023-08-17T01:30:35;115.30;;;108.13;;
30068;SDS011;16894;49.456;10.644;2023-08-17T01:38:28;116.78;;;109.32;;
30068;SDS011;16894;49.456;10.644;2023-08-17T01:40:54;110.40;;;103.60;;
30068;SDS011;16894;49.456;10.644;2023-08-17T01:43:21;129.93;;;121.72;;
30068;SDS011;16894;49.456;10.644;2023-08-17T01:45:47;137.25;;;128.88;;
30068;SDS011;16894;49.456;10.644;2023-08-17T01:48:13;137.02;;;128.18;;
30068;SDS011;16894;49.456;10.644;2023-08-17T01:50:39;131.93;;;123.50;;
30068;SDS011;16894;49.456;10.644;2023-08-17T01:53:04;131.35;;;123.32;;
30068;SDS011;16894;49.456;10.644;2023-08-17T01:55:30;136.13;;;127.30;;
30068;SDS011;16894;49.456;10.644;2023-08-17T01:57:56;160.00;;;150.25;;
30068;SDS011;16894;49.456;10.644;2023-08-17T02:00:21;156.03;;;146.63;;
30068;SDS011;16894;49.456;10.644;2023-08-17T02:02:47;167.30;;;156.93;;
30068;SDS011;16894;49.456;10.644;2023-08-17T02:05:13;158.65;;;148.77;;
30068;SDS011;16894;49.456;10.644;2023-08-17T02:07:38;161.07;;;151.03;;
30068;SDS011;16894;49.456;10.644;2023-08-17T02:10:04;165.57;;;155.17;;
30068;SDS011;16894;49.456;10.644;2023-08-17T02:12:30;165.13;;;154.73;;
30068;SDS011;16894;49.456;10.644;2023-08-17T02:14:56;162.10;;;152.30;;
30068;SDS011;16894;49.456;10.644;2023-08-17T02:17:22;165.47;;;155.13;;
30068;SDS011;16894;49.456;10.644;2023-08-17T02:19:47;160.30;;;150.47;;
30068;SDS011;16894;49.456;10.644;2023-08-17T02:22:13;166.10;;;155.90;;
30068;SDS011;16894;49.456;10.644;2023-08-17T02:24:39;160.23;;;150.45;;
30068;SDS011;16894;49.456;10.644;2023-08-17T02:27:05;163.43;;;153.00;;
30068;SDS011;16894;49.456;10.644;2023-08-17T02:29:31;159.88;;;149.80;;
30068;SDS011;16894;49.456;10.644;2023-08-17T02:31:57;158.80;;;148.88;;
30068;SDS011;16894;49.456;10.644;2023-08-17T02:34:23;157.38;;;147.55;;
30068;SDS011;16894;49.456;10.644;2023-08-17T02:36:48;159.77;;;149.77;;
30068;SDS011;16894;49.456;10.644;2023-08-17T02:39:14;159.35;;;149.48;;
30068;SDS011;16894;49.456;10.644;2023-08-17T02:41:40;156.37;;;146.13;;
30068;SDS011;16894;49.456;10.644;2023-08-17T02:44:05;152.63;;;143.00;;
30068;SDS011;16894;49.456;10.644;2023-08-17T02:46:31;154.18;;;144.52;;
30068;SDS011;16894;49.456;10.644;2023-08-17T02:48:57;157.30;;;147.47;;
30068;SDS011;16894;49.456;10.644;2023-08-17T02:51:22;152.75;;;142.82;;
30068;SDS011;16894;49.456;10.644;2023-08-17T02:53:48;150.07;;;140.70;;
30068;SDS011;16894;49.456;10.644;2023-08-17T02:56:14;151.07;;;141.70;;
30068;SDS011;16894;49.456;10.644;2023-08-17T02:58:39;160.20;;;150.30;;
30068;SDS011;16894;49.456;10.644;2023-08-17T03:01:06;162.77;;;152.90;;
30068;SDS011;16894;49.456;10.644;2023-08-17T03:03:35;161.88;;;151.63;;
30068;SDS011;16894;49.456;10.644;2023-08-17T03:06:04;176.85;;;166.05;;
30068;SDS011;16894;49.456;10.644;2023-08-17T03:08:30;211.73;;;198.40;;
30068;SDS011;16894;49.456;10.644;2023-08-17T03:10:56;226.88;;;212.57;;
30068;SDS011;16894;49.456;10.644;2023-08-17T03:13:22;268.75;;;251.93;;
30068;SDS011;16894;49.456;10.644;2023-08-17T03:15:48;271.52;;;254.50;;
30068;SDS011;16894;49.456;10.644;2023-08-17T03:18:14;271.80;;;254.90;;
30068;SDS011;16894;49.456;10.644;2023-08-17T03:20:39;256.37;;;240.47;;
30068;SDS011;16894;49.456;10.644;2023-08-17T03:23:05;280.30;;;262.50;;
30068;SDS011;16894;49.456;10.644;2023-08-17T03:25:32;299.40;;;279.80;;
30068;SDS011;16894;49.456;10.644;2023-08-17T03:27:59;312.45;;;292.48;;
30068;SDS011;16894;49.456;10.644;2023-08-17T03:30:25;266.23;;;249.63;;
30068;SDS011;16894;49.456;10.644;2023-08-17T03:32:51;297.05;;;278.33;;
30068;SDS011;16894;49.456;10.644;2023-08-17T03:35:19;303.13;;;284.20;;
30068;SDS011;16894;49.456;10.644;2023-08-17T03:37:45;334.80;;;313.83;;
30068;SDS011;16894;49.456;10.644;2023-08-17T03:40:11;320.52;;;300.52;;
30068;SDS011;16894;49.456;10.644;2023-08-17T03:42:37;343.88;;;322.20;;
30068;SDS011;16894;49.456;10.644;2023-08-17T03:45:02;398.85;;;373.20;;
30068;SDS011;16894;49.456;10.644;2023-08-17T03:49:54;227.13;;;213.25;;
30068;SDS011;16894;49.456;10.644;2023-08-17T03:52:20;271.67;;;255.05;;
30068;SDS011;16894;49.456;10.644;2023-08-17T03:54:46;275.20;;;258.20;;
30068;SDS011;16894;49.456;10.644;2023-08-17T03:57:11;261.27;;;245.30;;
30068;SDS011;16894;49.456;10.644;2023-08-17T03:59:37;248.25;;;233.00;;
30068;SDS011;16894;49.456;10.644;2023-08-17T04:02:03;287.02;;;269.15;;
30068;SDS011;16894;49.456;10.644;2023-08-17T04:04:29;297.15;;;278.92;;
30068;SDS011;16894;49.456;10.644;2023-08-17T04:06:54;336.90;;;316.13;;
30068;SDS011;16894;49.456;10.644;2023-08-17T04:09:20;272.30;;;255.43;;
30068;SDS011;16894;49.456;10.644;2023-08-17T04:11:45;241.38;;;226.57;;
30068;SDS011;16894;49.456;10.644;2023-08-17T04:14:11;254.10;;;238.00;;
30068;SDS011;16894;49.456;10.644;2023-08-17T04:16:37;309.20;;;289.92;;
30068;SDS011;16894;49.456;10.644;2023-08-17T04:19:03;332.30;;;311.47;;
30068;SDS011;16894;49.456;10.644;2023-08-17T04:21:28;358.58;;;335.98;;
30068;SDS011;16894;49.456;10.644;2023-08-17T04:23:54;368.02;;;344.20;;
30068;SDS011;16894;49.456;10.644;2023-08-17T04:26:20;400.17;;;374.40;;
30068;SDS011;16894;49.456;10.644;2023-08-17T04:28:46;387.35;;;362.77;;
30068;SDS011;16894;49.456;10.644;2023-08-17T04:31:12;427.92;;;400.17;;
30068;SDS011;16894;49.456;10.644;2023-08-17T04:33:37;386.08;;;361.65;;
30068;SDS011;16894;49.456;10.644;2023-08-17T04:36:04;367.70;;;344.42;;
30068;SDS011;16894;49.456;10.644;2023-08-17T04:38:30;245.23;;;230.47;;
30068;SDS011;16894;49.456;10.644;2023-08-17T04:40:55;260.67;;;244.63;;
30068;SDS011;16894;49.456;10.644;2023-08-17T04:43:21;265.23;;;249.05;;
30068;SDS011;16894;49.456;10.644;2023-08-17T04:45:47;257.60;;;241.73;;
30068;SDS011;16894;49.456;10.644;2023-08-17T04:48:13;265.43;;;248.93;;
30068;SDS011;16894;49.456;10.644;2023-08-17T04:50:38;365.25;;;341.05;;
30068;SDS011;16894;49.456;10.644;2023-08-17T04:53:04;444.40;;;415.30;;
30068;SDS011;16894;49.456;10.644;2023-08-17T04:55:30;466.23;;;435.58;;
30068;SDS011;16894;49.456;10.644;2023-08-17T04:57:57;467.15;;;436.33;;
30068;SDS011;16894;49.456;10.644;2023-08-17T05:00:23;475.35;;;443.98;;
30068;SDS011;16894;49.456;10.644;2023-08-17T05:02:53;431.95;;;404.00;;
30068;SDS011;16894;49.456;10.644;2023-08-17T05:05:19;412.20;;;386.10;;
30068;SDS011;16894;49.456;10.644;2023-08-17T05:07:45;411.15;;;385.15;;
30068;SDS011;16894;49.456;10.644;2023-08-17T05:10:11;466.50;;;436.03;;
30068;SDS011;16894;49.456;10.644;2023-08-17T05:12:36;481.30;;;449.13;;
30068;SDS011;16894;49.456;10.644;2023-08-17T05:15:02;469.60;;;438.17;;
30068;SDS011;16894;49.456;10.644;2023-08-17T05:17:28;497.20;;;463.65;;
30068;SDS011;16894;49.456;10.644;2023-08-17T05:19:54;512.37;;;477.67;;
30068;SDS011;16894;49.456;10.644;2023-08-17T05:22:19;542.25;;;504.95;;
30068;SDS011;16894;49.456;10.644;2023-08-17T05:24:45;495.27;;;461.97;;
30068;SDS011;16894;49.456;10.644;2023-08-17T05:27:11;457.07;;;427.30;;
30068;SDS011;16894;49.456;10.644;2023-08-17T05:29:36;429.10;;;400.90;;
30068;SDS011;16894;49.456;10.644;2023-08-17T05:32:02;435.52;;;406.65;;
30068;SDS011;16894;49.456;10.644;2023-08-17T05:34:28;464.10;;;433.23;;
30068;SDS011;16894;49.456;10.644;2023-08-17T05:36:53;478.90;;;446.60;;
30068;SDS011;16894;49.456;10.644;2023-08-17T05:39:19;462.00;;;431.60;;
30068;SDS011;16894;49.456;10.644;2023-08-17T05:41:45;502.75;;;468.20;;
30068;SDS011;16894;49.456;10.644;2023-08-17T05:44:10;518.40;;;483.33;;
30068;SDS011;16894;49.456;10.644;2023-08-17T05:46:36;503.05;;;469.30;;
30068;SDS011;16894;49.456;10.644;2023-08-17T05:49:02;524.77;;;488.60;;
30068;SDS011;16894;49.456;10.644;2023-08-17T05:51:29;574.70;;;532.90;;
30068;SDS011;16894;49.456;10.644;2023-08-17T05:53:54;561.25;;;521.80;;
30068;SDS011;16894;49.456;10.644;2023-08-17T05:58:46;494.13;;;460.05;;
30068;SDS011;16894;49.456;10.644;2023-08-17T06:01:12;531.50;;;494.57;;
30068;SDS011;16894;49.456;10.644;2023-08-17T06:03:39;537.55;;;500.33;;
30068;SDS011;16894;49.456;10.644;2023-08-17T06:06:04;487.02;;;454.45;;
30068;SDS011;16894;49.456;10.644;2023-08-17T06:08:30;449.88;;;420.42;;
30068;SDS011;16894;49.456;10.644;2023-08-17T06:10:56;389.85;;;365.08;;
30068;SDS011;16894;49.456;10.644;2023-08-17T06:13:22;357.08;;;334.52;;
30068;SDS011;16894;49.456;10.644;2023-08-17T06:15:48;307.00;;;287.85;;
30068;SDS011;16894;49.456;10.644;2023-08-17T06:18:14;236.75;;;222.38;;
30068;SDS011;16894;49.456;10.644;2023-08-17T06:20:40;217.23;;;203.57;;
30068;SDS011;16894;49.456;10.644;2023-08-17T06:23:06;190.27;;;178.32;;
30068;SDS011;16894;49.456;10.644;2023-08-17T06:25:31;163.65;;;153.32;;
30068;SDS011;16894;49.456;10.644;2023-08-17T06:27:57;159.77;;;149.85;;
30068;SDS011;16894;49.456;10.644;2023-08-17T06:30:23;152.93;;;143.00;;
30068;SDS011;16894;49.456;10.644;2023-08-17T06:32:50;162.67;;;152.17;;
30068;SDS011;16894;49.456;10.644;2023-08-17T06:35:16;150.93;;;141.35;;
30068;SDS011;16894;49.456;10.644;2023-08-17T06:37:42;137.63;;;128.93;;
30068;SDS011;16894;49.456;10.644;2023-08-17T06:40:08;123.28;;;114.90;;
30068;SDS011;16894;49.456;10.644;2023-08-17T06:42:34;156.93;;;146.93;;
30068;SDS011;16894;49.456;10.644;2023-08-17T06:45:00;162.07;;;151.95;;
30068;SDS011;16894;49.456;10.644;2023-08-17T06:47:28;172.25;;;161.23;;
30068;SDS011;16894;49.456;10.644;2023-08-17T06:49:54;178.23;;;167.20;;
30068;SDS011;16894;49.456;10.644;2023-08-17T06:52:20;193.35;;;181.48;;
30068;SDS011;16894;49.456;10.644;2023-08-17T06:54:46;176.95;;;165.73;;
30068;SDS011;16894;49.456;10.644;2023-08-17T06:57:11;165.13;;;154.68;;
30068;SDS011;16894;49.456;10.644;2023-08-17T06:59:37;143.45;;;134.13;;
30068;SDS011;16894;49.456;10.644;2023-08-17T07:02:03;136.45;;;127.18;;
30068;SDS011;16894;49.456;10.644;2023-08-17T07:04:28;136.63;;;127.35;;
30068;SDS011;16894;49.456;10.644;2023-08-17T07:06:54;116.10;;;108.55;;
30068;SDS011;16894;49.456;10.644;2023-08-17T07:09:20;109.25;;;102.28;;
30068;SDS011;16894;49.456;10.644;2023-08-17T07:11:46;100.18;;;93.75;;
30068;SDS011;16894;49.456;10.644;2023-08-17T07:14:11;102.18;;;95.55;;
30068;SDS011;16894;49.456;10.644;2023-08-17T07:16:37;98.65;;;92.32;;
30068;SDS011;16894;49.456;10.644;2023-08-17T07:19:03;83.35;;;77.70;;
30068;SDS011;16894;49.456;10.644;2023-08-17T07:21:29;78.10;;;72.63;;
30068;SDS011;16894;49.456;10.644;2023-08-17T07:23:55;73.45;;;68.50;;
30068;SDS011;16894;49.456;10.644;2023-08-17T07:26:21;79.25;;;74.03;;
30068;SDS011;16894;49.456;10.644;2023-08-17T07:28:48;82.90;;;77.00;;
30068;SDS011;16894;49.456;10.644;2023-08-17T07:31:14;59.38;;;55.17;;
30068;SDS011;16894;49.456;10.644;2023-08-17T07:33:40;66.63;;;62.20;;
30068;SDS011;16894;49.456;10.644;2023-08-17T07:36:06;63.45;;;59.42;;
30068;SDS011;16894;49.456;10.644;2023-08-17T07:38:32;58.85;;;54.65;;
30068;SDS011;16894;49.456;10.644;2023-08-17T07:40:58;85.15;;;78.90;;
30068;SDS011;16894;49.456;10.644;2023-08-17T07:43:23;114.47;;;107.07;;
30068;SDS011;16894;49.456;10.644;2023-08-17T07:45:56;116.90;;;109.38;;
30068;SDS011;16894;49.456;10.644;2023-08-17T07:48:22;167.35;;;156.85;;
30068;SDS011;16894;49.456;10.644;2023-08-17T07:50:51;155.30;;;145.27;;
30068;SDS011;16894;49.456;10.644;2023-08-17T07:53:18;145.63;;;135.88;;
30068;SDS011;16894;49.456;10.644;2023-08-17T07:55:44;146.10;;;137.10;;
30068;SDS011;16894;49.456;10.644;2023-08-17T07:58:10;180.60;;;169.10;;
30068;SDS011;16894;49.456;10.644;2023-08-17T08:00:36;162.35;;;151.10;;
30068;SDS011;16894;49.456;10.644;2023-08-17T08:03:02;173.27;;;162.60;;
30068;SDS011;16894;49.456;10.644;2023-08-17T08:05:28;217.43;;;203.38;;
30068;SDS011;16894;49.456;10.644;2023-08-17T08:07:54;278.02;;;261.15;;
30068;SDS011;16894;49.456;10.644;2023-08-17T08:10:20;329.60;;;308.98;;
30068;SDS011;16894;49.456;10.644;2023-08-17T08:12:45;445.23;;;417.33;;
30068;SDS011;16894;49.456;10.644;2023-08-17T08:15:11;452.10;;;421.88;;
30068;SDS011;16894;49.456;10.644;2023-08-17T08:17:37;474.42;;;444.17;;
30068;SDS011;16894;49.456;10.644;2023-08-17T08:20:03;713.83;;;660.67;;
30068;SDS011;16894;49.456;10.644;2023-08-17T08:22:29;824.78;;;761.10;;
30068;SDS011;16894;49.456;10.644;2023-08-17T08:24:55;1100.63;;;995.70;;
30068;SDS011;16894;49.456;10.644;2023-08-17T08:27:21;1284.35;;;999.90;;
30068;SDS011;16894;49.456;10.644;2023-08-17T08:32:12;1999.90;;;999.90;;
30068;SDS011;16894;49.456;10.644;2023-08-17T08:37:03;1999.90;;;999.90;;
30068;SDS011;16894;49.456;10.644;2023-08-17T08:41:55;1999.90;;;999.90;;
30068;SDS011;16894;49.456;10.644;2023-08-17T08:44:21;1999.90;;;999.90;;
30068;SDS011;16894;49.456;10.644;2023-08-17T08:49:13;1999.90;;;999.90;;
30068;SDS011;16894;49.456;10.644;2023-08-17T08:51:46;1999.90;;;999.90;;
30068;SDS011;16894;49.456;10.644;2023-08-17T08:54:16;1999.90;;;999.90;;
30068;SDS011;16894;49.456;10.644;2023-08-17T08:56:46;1999.90;;;999.90;;
30068;SDS011;16894;49.456;10.644;2023-08-17T08:59:19;1999.90;;;999.90;;
30068;SDS011;16894;49.456;10.644;2023-08-17T09:01:46;1999.90;;;999.90;;
30068;SDS011;16894;49.456;10.644;2023-08-17T09:04:12;1999.90;;;999.90;;
30068;SDS011;16894;49.456;10.644;2023-08-17T09:09:05;1999.90;;;999.90;;
30068;SDS011;16894;49.456;10.644;2023-08-17T09:11:32;1999.90;;;999.90;;
30068;SDS011;16894;49.456;10.644;2023-08-17T09:13:58;1999.90;;;999.90;;
30068;SDS011;16894;49.456;10.644;2023-08-17T09:16:24;1999.90;;;999.90;;
30068;SDS011;16894;49.456;10.644;2023-08-17T09:18:52;1999.90;;;999.90;;
30068;SDS011;16894;49.456;10.644;2023-08-17T09:21:22;1999.90;;;999.90;;
30068;SDS011;16894;49.456;10.644;2023-08-17T09:23:55;1999.90;;;999.90;;
30068;SDS011;16894;49.456;10.644;2023-08-17T09:26:21;1999.90;;;999.90;;
30068;SDS011;16894;49.456;10.644;2023-08-17T09:28:49;1999.90;;;999.90;;
30068;SDS011;16894;49.456;10.644;2023-08-17T09:31:15;1999.90;;;999.90;;
30068;SDS011;16894;49.456;10.644;2023-08-17T09:33:40;1999.90;;;999.90;;
30068;SDS011;16894;49.456;10.644;2023-08-17T09:36:06;1999.90;;;999.90;;
30068;SDS011;16894;49.456;10.644;2023-08-17T09:38:36;1999.90;;;999.90;;
30068;SDS011;16894;49.456;10.644;2023-08-17T09:41:03;1999.90;;;999.90;;
30068;SDS011;16894;49.456;10.644;2023-08-17T09:43:31;1999.90;;;999.90;;
30068;SDS011;16894;49.456;10.644;2023-08-17T09:45:59;1999.90;;;999.90;;
30068;SDS011;16894;49.456;10.644;2023-08-17T09:48:27;1999.90;;;999.90;;
30068;SDS011;16894;49.456;10.644;2023-08-17T09:50:53;1999.90;;;999.90;;
30068;SDS011;16894;49.456;10.644;2023-08-17T09:53:21;1999.90;;;999.90;;
30068;SDS011;16894;49.456;10.644;2023-08-17T09:55:47;1999.90;;;999.90;;
30068;SDS011;16894;49.456;10.644;2023-08-17T09:58:13;1999.90;;;999.90;;
30068;SDS011;16894;49.456;10.644;2023-08-17T10:00:44;1999.90;;;999.90;;
30068;SDS011;16894;49.456;10.644;2023-08-17T10:03:14;1999.90;;;999.90;;
30068;SDS011;16894;49.456;10.644;2023-08-17T10:05:42;1999.90;;;999.90;;
30068;SDS011;16894;49.456;10.644;2023-08-17T10:08:10;1999.90;;;999.90;;
30068;SDS011;16894;49.456;10.644;2023-08-17T10:10:38;1999.90;;;999.90;;
30068;SDS011;16894;49.456;10.644;2023-08-17T10:15:49;1999.90;;;999.90;;
30068;SDS011;16894;49.456;10.644;2023-08-17T10:18:25;1999.90;;;999.90;;
30068;SDS011;16894;49.456;10.644;2023-08-17T10:21:02;1999.90;;;999.90;;
30068;SDS011;16894;49.456;10.644;2023-08-17T10:23:35;1999.90;;;999.90;;
30068;SDS011;16894;49.456;10.644;2023-08-17T10:26:02;1999.90;;;999.90;;
30068;SDS011;16894;49.456;10.644;2023-08-17T10:28:28;1999.90;;;999.90;;
30068;SDS011;16894;49.456;10.644;2023-08-17T10:30:59;1999.90;;;999.90;;
30068;SDS011;16894;49.456;10.644;2023-08-17T10:33:25;1999.90;;;999.90;;
30068;SDS011;16894;49.456;10.644;2023-08-17T10:35:52;1999.90;;;999.90;;
30068;SDS011;16894;49.456;10.644;2023-08-17T10:38:19;1999.90;;;999.90;;
30068;SDS011;16894;49.456;10.644;2023-08-17T10:40:45;1999.90;;;999.90;;
30068;SDS011;16894;49.456;10.644;2023-08-17T10:43:33;1999.90;;;999.90;;
30068;SDS011;16894;49.456;10.644;2023-08-17T10:46:14;1999.90;;;999.90;;
30068;SDS011;16894;49.456;10.644;2023-08-17T10:48:43;1999.90;;;999.90;;
30068;SDS011;16894;49.456;10.644;2023-08-17T10:51:09;1999.90;;;999.90;;
30068;SDS011;16894;49.456;10.644;2023-08-17T10:53:38;1999.90;;;999.90;;
30068;SDS011;16894;49.456;10.644;2023-08-17T10:56:08;1999.90;;;999.90;;
30068;SDS011;16894;49.456;10.644;2023-08-17T10:58:37;1999.90;;;999.90;;
30068;SDS011;16894;49.456;10.644;2023-08-17T11:01:02;1999.90;;;999.90;;
30068;SDS011;16894;49.456;10.644;2023-08-17T11:03:28;1999.90;;;999.90;;
30068;SDS011;16894;49.456;10.644;2023-08-17T11:05:54;612.20;;;563.03;;
30068;SDS011;16894;49.456;10.644;2023-08-17T11:08:28;615.05;;;565.83;;
30068;SDS011;16894;49.456;10.644;2023-08-17T11:11:09;386.25;;;362.35;;
30068;SDS011;16894;49.456;10.644;2023-08-17T11:13:37;534.55;;;497.35;;
30068;SDS011;16894;49.456;10.644;2023-08-17T11:16:04;398.15;;;372.98;;
30068;SDS011;16894;49.456;10.644;2023-08-17T11:18:31;708.60;;;654.35;;
30068;SDS011;16894;49.456;10.644;2023-08-17T11:20:57;785.85;;;725.42;;
30068;SDS011;16894;49.456;10.644;2023-08-17T11:23:23;852.58;;;785.60;;
30068;SDS011;16894;49.456;10.644;2023-08-17T11:25:49;911.92;;;838.35;;
30068;SDS011;16894;49.456;10.644;2023-08-17T11:28:17;851.88;;;786.10;;
30068;SDS011;16894;49.456;10.644;2023-08-17T11:30:43;907.88;;;835.53;;
30068;SDS011;16894;49.456;10.644;2023-08-17T11:33:09;757.00;;;700.67;;
30068;SDS011;16894;49.456;10.644;2023-08-17T11:35:36;861.83;;;794.85;;
30068;SDS011;16894;49.456;10.644;2023-08-17T11:38:02;865.78;;;796.55;;
30068;SDS011;16894;49.456;10.644;2023-08-17T11:40:29;795.63;;;734.83;;
30068;SDS011;16894;49.456;10.644;2023-08-17T11:42:55;826.35;;;762.50;;
30068;SDS011;16894;49.456;10.644;2023-08-17T11:45:21;735.50;;;681.03;;
30068;SDS011;16894;49.456;10.644;2023-08-17T11:47:48;748.90;;;693.25;;
30068;SDS011;16894;49.456;10.644;2023-08-17T11:50:14;699.72;;;647.92;;
30068;SDS011;16894;49.456;10.644;2023-08-17T11:52:40;601.22;;;558.53;;
30068;SDS011;16894;49.456;10.644;2023-08-17T11:55:06;453.25;;;424.13;;
30068;SDS011;16894;49.456;10.644;2023-08-17T11:57:37;548.25;;;510.50;;
30068;SDS011;16894;49.456;10.644;2023-08-17T12:00:04;683.42;;;632.72;;
30068;SDS011;16894;49.456;10.644;2023-08-17T12:02:35;762.08;;;704.55;;
30068;SDS011;16894;49.456;10.644;2023-08-17T12:05:07;748.58;;;692.85;;
30068;SDS011;16894;49.456;10.644;2023-08-17T12:07:34;801.67;;;740.92;;
30068;SDS011;16894;49.456;10.644;2023-08-17T12:10:02;785.15;;;726.30;;
30068;SDS011;16894;49.456;10.644;2023-08-17T12:12:29;795.97;;;735.97;;
30068;SDS011;16894;49.456;10.644;2023-08-17T12:14:56;744.35;;;689.13;;
30068;SDS011;16894;49.456;10.644;2023-08-17T12:17:22;806.20;;;744.75;;
30068;SDS011;16894;49.456;10.644;2023-08-17T12:19:48;751.10;;;694.97;;
30068;SDS011;16894;49.456;10.644;2023-08-17T12:22:16;722.47;;;669.05;;
30068;SDS011;16894;49.456;10.644;2023-08-17T12:24:43;866.58;;;798.40;;
30068;SDS011;16894;49.456;10.644;2023-08-17T12:27:09;810.05;;;748.75;;
30068;SDS011;16894;49.456;10.644;2023-08-17T12:29:45;653.17;;;605.88;;
30068;SDS011;16894;49.456;10.644;2023-08-17T12:32:13;866.08;;;798.28;;
30068;SDS011;16894;49.456;10.644;2023-08-17T12:34:40;773.88;;;715.97;;
30068;SDS011;16894;49.456;10.644;2023-08-17T12:37:07;691.47;;;641.15;;
30068;SDS011;16894;49.456;10.644;2023-08-17T12:39:35;715.35;;;662.42;;
30068;SDS011;16894;49.456;10.644;2023-08-17T12:42:01;657.58;;;609.70;;
30068;SDS011;16894;49.456;10.644;2023-08-17T12:44:27;660.83;;;613.10;;
30068;SDS011;16894;49.456;10.644;2023-08-17T12:46:53;692.55;;;641.85;;
30068;SDS011;16894;49.456;10.644;2023-08-17T12:49:19;675.45;;;626.42;;
30068;SDS011;16894;49.456;10.644;2023-08-17T12:51:45;697.60;;;646.70;;
30068;SDS011;16894;49.456;10.644;2023-08-17T12:54:10;779.00;;;720.15;;
30068;SDS011;16894;49.456;10.644;2023-08-17T12:56:36;805.88;;;744.30;;
30068;SDS011;16894;49.456;10.644;2023-08-17T12:59:02;886.28;;;816.30;;
30068;SDS011;16894;49.456;10.644;2023-08-17T13:01:27;728.08;;;673.88;;
30068;SDS011;16894;49.456;10.644;2023-08-17T13:03:53;741.80;;;686.67;;
30068;SDS011;16894;49.456;10.644;2023-08-17T13:06:19;697.67;;;646.53;;
30068;SDS011;16894;49.456;10.644;2023-08-17T13:08:45;636.72;;;591.90;;
30068;SDS011;16894;49.456;10.644;2023-08-17T13:11:11;898.08;;;826.50;;
30068;SDS011;16894;49.456;10.644;2023-08-17T13:13:36;877.88;;;806.70;;
30068;SDS011;16894;49.456;10.644;2023-08-17T13:16:02;735.10;;;679.75;;
30068;SDS011;16894;49.456;10.644;2023-08-17T13:18:28;596.33;;;554.88;;
30068;SDS011;16894;49.456;10.644;2023-08-17T13:20:54;375.33;;;351.60;;
30068;SDS011;16894;49.456;10.644;2023-08-17T13:23:20;384.20;;;359.13;;
30068;SDS011;16894;49.456;10.644;2023-08-17T13:25:45;1999.90;;;999.90;;
30068;SDS011;16894;49.456;10.644;2023-08-17T13:28:11;1999.90;;;999.90;;
30068;SDS011;16894;49.456;10.644;2023-08-17T13:30:40;1999.90;;;999.90;;
30068;SDS011;16894;49.456;10.644;2023-08-17T13:33:06;1999.90;;;999.90;;
30068;SDS011;16894;49.456;10.644;2023-08-17T13:35:32;1999.90;;;999.90;;
30068;SDS011;16894;49.456;10.644;2023-08-17T13:37:58;1999.90;;;999.90;;
30068;SDS011;16894;49.456;10.644;2023-08-17T13:40:24;1999.90;;;999.90;;
30068;SDS011;16894;49.456;10.644;2023-08-17T13:42:50;1999.90;;;999.90;;
30068;SDS011;16894;49.456;10.644;2023-08-17T13:45:16;1999.90;;;999.90;;
30068;SDS011;16894;49.456;10.644;2023-08-17T13:47:42;1999.90;;;999.90;;
30068;SDS011;16894;49.456;10.644;2023-08-17T13:50:08;1999.90;;;999.90;;
30068;SDS011;16894;49.456;10.644;2023-08-17T13:52:34;1999.90;;;999.90;;
30068;SDS011;16894;49.456;10.644;2023-08-17T13:54:59;1999.90;;;999.90;;
30068;SDS011;16894;49.456;10.644;2023-08-17T13:57:25;1999.90;;;999.90;;
30068;SDS011;16894;49.456;10.644;2023-08-17T13:59:51;1999.90;;;999.90;;
30068;SDS011;16894;49.456;10.644;2023-08-17T14:02:17;1999.90;;;999.90;;
30068;SDS011;16894;49.456;10.644;2023-08-17T14:04:43;1999.90;;;999.90;;
30068;SDS011;16894;49.456;10.644;2023-08-17T14:09:35;1999.90;;;999.90;;
30068;SDS011;16894;49.456;10.644;2023-08-17T14:14:26;1999.90;;;999.90;;
30068;SDS011;16894;49.456;10.644;2023-08-17T14:19:18;1999.90;;;999.90;;
30068;SDS011;16894;49.456;10.644;2023-08-17T14:21:43;1999.90;;;999.90;;